Flight Track Log - Related Links

Times and Time Zones

All times are in EDT time to prevent confusion due to time zone crossing. See the WBR2634 flight status page for this flight to view local times or setup timezone preferences in your user account.

Time Position Orientation Groundspeed Altitude Reporting Facility
EDT Latitude Longitude Course Direction KTS MPH feet Rate Location/Type
Mon 05:38:51 PM 40.7722 -91.0575 73° East 123 142 2,600  Level Chicago Center
Mon 05:39:53 PM 40.7853 -91.0039 72° East 129 148 3,600 871 Climbing Chicago Center
Mon 05:40:00 PM 40.8629 -90.7741 57° Northeast  Level FlightAware Approximate
Mon 05:40:55 PM 40.8025 -90.9600 63° Northeast 131 151 4,400  Level Chicago Center
Mon 05:41:00 PM 40.8751 -90.7163 72° East  Level FlightAware Approximate
Mon 05:41:57 PM 40.8208 -90.9128 63° Northeast 136 157 5,000  Level Chicago Center
Mon 05:42:00 PM 40.8892 -90.6581 73° East  Level FlightAware Approximate
Mon 05:42:59 PM 40.8381 -90.8658 64° Northeast 141 162 5,700  Level Chicago Center
Mon 05:43:00 PM 40.9028 -90.5997 73° East  Level FlightAware Approximate
Mon 05:44:00 PM 40.9163 -90.5412 73° East  Level FlightAware Approximate
Mon 05:44:01 PM 40.8542 -90.8189 66° East 141 162 6,300  Level Chicago Center
Mon 05:45:03 PM 40.8714 -90.7683 66° East 147 169 7,000 677 Climbing Chicago Center
Mon 05:46:05 PM 40.8886 -90.7175 66° East 150 173 7,700 774 Climbing Chicago Center
Mon 05:47:07 PM 40.9133 -90.6564 62° Northeast 154 177 8,600 629 Climbing Chicago Center
Mon 05:48:09 PM 40.9306 -90.6044 66° East 155 178 9,000 194 Climbing Chicago Center
Mon 05:49:11 PM 40.9500 -90.5458 66° East 169 194 9,000  Level Chicago Center
Mon 05:50:14 PM 40.9733 -90.4875 62° Northeast 177 204 9,000  Level Chicago Center
Mon 05:51:16 PM 40.9944 -90.4294 64° Northeast 175 201 9,000  Level Chicago Center
Mon 05:52:18 PM 41.0150 -90.3711 65° Northeast 174 200 9,000  Level Chicago Center
Mon 05:53:20 PM 41.0389 -90.3011 66° East 174 200 9,000  Level Chicago Center
Mon 05:54:22 PM 41.0589 -90.2433 65° Northeast 173 199 9,000  Level Chicago Center
Mon 05:55:24 PM 41.0775 -90.1847 67° East 172 198 9,000  Level Chicago Center
Mon 05:56:26 PM 41.0975 -90.1272 65° Northeast 172 198 9,000  Level Chicago Center
Mon 05:57:28 PM 41.1186 -90.0686 64° Northeast 174 200 9,000  Level Chicago Center
Mon 05:58:30 PM 41.1392 -90.0114 64° Northeast 172 198 9,000  Level Chicago Center
Mon 05:59:32 PM 41.1578 -89.9525 67° East 172 198 9,000  Level Chicago Center
Mon 06:00:34 PM 41.1839 -89.8817 64° Northeast 174 200 9,000  Level Chicago Center
Mon 06:01:36 PM 41.2061 -89.8258 62° Northeast 174 200 9,000  Level Chicago Center
Mon 06:02:38 PM 41.2244 -89.7678 67° East 170 196 9,000  Level Chicago Center
Mon 06:03:40 PM 41.2422 -89.7100 68° East 169 194 9,000  Level Chicago Center
Mon 06:04:42 PM 41.2631 -89.6533 64° Northeast 170 196 9,000  Level Chicago Center
Mon 06:05:44 PM 41.2822 -89.5958 66° East 170 196 9,000  Level Chicago Center
Mon 06:06:46 PM 41.3039 -89.5403 63° Northeast 170 196 9,000  Level Chicago Center
Mon 06:07:49 PM 41.3258 -89.4708 67° East 169 194 9,000  Level Chicago Center
Mon 06:08:50 PM 41.3450 -89.4139 66° East 169 194 9,000  Level Chicago Center
Mon 06:09:53 PM 41.3622 -89.3547 69° East 170 196 9,000  Level Chicago Center
Mon 06:10:55 PM 41.3825 -89.2981 64° Northeast 170 196 9,000  Level Chicago Center
Mon 06:11:57 PM 41.4031 -89.2414 64° Northeast 170 196 9,000  Level Chicago Center
Mon 06:12:59 PM 41.4239 -89.1772 67° East 169 194 9,000  Level Chicago Center
Mon 06:14:01 PM 41.4439 -89.1203 65° Northeast 171 197 9,000  Level Chicago Center
Mon 06:15:03 PM 41.4622 -89.0644 66° East 167 192 9,000  Level Chicago Center
Mon 06:16:05 PM 41.4856 -88.9961 65° Northeast 169 194 9,000 -145 Level Chicago Center
Mon 06:17:07 PM 41.5044 -88.9372 67° East 173 199 8,700 -387 Descending Chicago Center
Mon 06:18:09 PM 41.5222 -88.8786 68° East 172 198 8,200 -336 Descending Chicago Center
Mon 06:19:12 PM 41.5439 -88.8197 64° Northeast 176 203 8,000 -96 Descending Chicago Center
Mon 06:20:14 PM 41.5636 -88.7625 65° Northeast 172 198 8,000  Level Chicago Center
Mon 06:21:16 PM 41.5858 -88.6931 67° East 170 196 8,000  Level Chicago Center
Mon 06:22:18 PM 41.6036 -88.6361 67° East 169 194 8,000  Level Chicago Center
Mon 06:23:20 PM 41.6278 -88.5811 60° Northeast 176 203 8,000  Level Chicago Center
Mon 06:24:22 PM 41.6561 -88.5308 53° Northeast 170 196 8,000  Level Chicago Center
Mon 06:25:24 PM 41.6772 -88.4728 64° Northeast 173 199 8,000  Level Chicago Center
Mon 06:26:26 PM 41.6956 -88.4167 66° East 167 192 8,000 -48 Level Chicago Center
Mon 06:27:29 PM 41.7197 -88.3483 65° Northeast 167 192 7,900 -288 Descending Chicago Center
Mon 06:28:31 PM 41.7644 -88.3233 23° Northeast 192 221 7,400 -435 Descending Chicago Center
Mon 06:29:33 PM 41.8158 -88.3278 356° North 189 217 7,000 -242 Descending Chicago Center
Mon 06:30:35 PM 41.8461 -88.2775 51° Northeast 168 193 6,900 -97 Descending Chicago Center
Mon 06:31:37 PM 41.8886 -88.2664 11° North 176 203 6,800 -435 Descending Chicago Center
Mon 06:32:39 PM 41.9106 -88.3303 295° West 163 188 6,000 -581 Descending Chicago Center
Mon 06:33:41 PM 41.9614 -88.3381 354° North 180 207 5,600 -484 Descending Chicago Center
Mon 06:34:43 PM 41.9683 -88.2794 81° East 178 205 5,000 -677 Descending Chicago Center
Mon 06:35:45 PM 41.9706 -88.2208 87° East 166 191 4,200 -532 Descending Chicago Center
Mon 06:36:47 PM 41.9678 -88.1614 94° East 162 186 3,900 -532 Descending Chicago Center
Mon 06:37:49 PM 41.9697 -88.0947 88° East 155 178 3,100 -774 Descending Chicago Center
Mon 06:38:51 PM 41.9686 -88.0411 92° East 150 173 2,300 -823 Descending Chicago Center
Mon 06:39:53 PM 41.9681 -87.9881 91° East 147 169 1,400 -871 Descending Chicago Center
Mon 06:42:00 PM 41.9667 -87.9000 90° East  Level FlightAware Approximate

Login

Don't have an account? Register now (free) for customized features, flight alerts, and more!